createdAt,value
2018-05-29T00:00:57.615Z,37.00
2018-05-29T00:03:26.371Z,36.20
2018-05-29T00:05:54.335Z,36.90
2018-05-29T00:08:22.362Z,36.80
2018-05-29T00:10:50.322Z,36.27
2018-05-29T00:13:18.315Z,35.80
2018-05-29T00:15:46.317Z,35.10
2018-05-29T00:18:14.323Z,34.60
2018-05-29T00:20:43.032Z,34.83
2018-05-29T00:23:11.044Z,36.17
2018-05-29T00:25:39.032Z,37.67
2018-05-29T00:28:07.789Z,35.73
2018-05-29T00:30:35.779Z,36.20
2018-05-29T00:33:03.719Z,34.27
2018-05-29T00:35:31.688Z,35.10
2018-05-29T00:37:59.730Z,33.90
2018-05-29T00:40:27.719Z,35.27
2018-05-29T00:42:55.708Z,33.37
2018-05-29T00:45:23.701Z,34.00
2018-05-29T00:47:51.677Z,34.80
2018-05-29T00:50:19.633Z,32.60
2018-05-29T00:52:47.634Z,34.27
2018-05-29T00:55:28.216Z,32.87
2018-05-29T00:57:56.262Z,34.87
2018-05-29T01:00:24.983Z,34.77
2018-05-29T01:02:52.928Z,34.50
2018-05-29T01:05:21.688Z,35.33
2018-05-29T01:07:49.635Z,34.23
2018-05-29T01:10:17.597Z,34.43
2018-05-29T01:12:45.594Z,34.77
2018-05-29T01:15:13.572Z,33.60
2018-05-29T01:17:41.570Z,34.57
2018-05-29T01:20:10.311Z,33.00
2018-05-29T01:22:38.288Z,33.30
2018-05-29T01:25:06.234Z,34.63
2018-05-29T01:27:34.245Z,34.10
2018-05-29T01:30:02.200Z,34.93
2018-05-29T01:32:30.170Z,36.40
2018-05-29T01:34:58.159Z,36.50
2018-05-29T01:37:26.129Z,34.10
2018-05-29T01:39:54.106Z,35.27
2018-05-29T01:42:22.864Z,36.97
2018-05-29T01:44:50.813Z,36.03
2018-05-29T01:47:18.796Z,36.87
2018-05-29T01:49:46.778Z,34.17
2018-05-29T01:52:14.771Z,33.77
2018-05-29T01:54:43.462Z,34.47
2018-05-29T01:57:12.205Z,34.83
2018-05-29T01:59:40.151Z,35.53
2018-05-29T02:02:08.879Z,35.70
2018-05-29T02:04:36.895Z,36.17
2018-05-29T02:07:04.851Z,34.80
2018-05-29T02:09:33.562Z,36.60
2018-05-29T02:12:01.651Z,34.77
2018-05-29T02:14:29.589Z,34.50
2018-05-29T02:16:58.304Z,35.80
2018-05-29T02:19:26.297Z,34.63
2018-05-29T02:21:54.290Z,35.07
2018-05-29T02:24:22.238Z,35.57
2018-05-29T02:26:50.203Z,34.60
2018-05-29T02:29:18.143Z,34.77
2018-05-29T02:31:46.072Z,34.77
2018-05-29T02:34:14.056Z,34.17
2018-05-29T02:36:42.791Z,35.20
2018-05-29T02:39:10.727Z,34.73
2018-05-29T02:41:38.675Z,34.53
2018-05-29T02:44:06.668Z,34.47
2018-05-29T02:46:34.676Z,34.67
2018-05-29T02:49:02.645Z,34.93
2018-05-29T02:51:30.616Z,33.50
2018-05-29T02:53:58.582Z,36.43
2018-05-29T02:56:26.535Z,36.90
2018-05-29T02:58:54.502Z,37.97
2018-05-29T03:01:22.453Z,35.90
2018-05-29T03:03:51.483Z,36.10
2018-05-29T03:06:19.481Z,37.30
2018-05-29T03:08:47.406Z,36.20
2018-05-29T03:11:15.378Z,35.57
2018-05-29T03:13:43.296Z,37.10
2018-05-29T03:16:11.226Z,37.97
2018-05-29T03:18:39.187Z,37.60
2018-05-29T03:21:07.120Z,36.40
2018-05-29T03:23:35.972Z,37.00
2018-05-29T03:26:04.093Z,37.00
2018-05-29T03:28:32.136Z,36.77
2018-05-29T03:31:00.145Z,38.77
2018-05-29T03:33:28.177Z,37.27
2018-05-29T03:35:56.248Z,36.57
2018-05-29T03:38:24.291Z,36.63
2018-05-29T03:40:52.380Z,35.23
2018-05-29T03:43:20.410Z,35.33
2018-05-29T03:45:48.383Z,38.07
2018-05-29T03:48:16.374Z,39.87
2018-05-29T03:50:44.510Z,45.00
2018-05-29T03:53:12.452Z,41.83
2018-05-29T03:55:41.169Z,38.37
2018-05-29T03:58:09.117Z,37.80
2018-05-29T04:00:37.818Z,36.40
2018-05-29T04:03:05.821Z,38.57
2018-05-29T04:05:33.789Z,37.70
2018-05-29T04:08:01.856Z,40.17
2018-05-29T04:10:29.851Z,40.97
2018-05-29T04:12:57.809Z,42.90
2018-05-29T04:15:25.882Z,41.73
2018-05-29T04:17:53.844Z,39.13
2018-05-29T04:20:22.567Z,40.77
2018-05-29T04:22:50.570Z,41.77
2018-05-29T04:25:18.521Z,41.60
2018-05-29T04:27:47.230Z,40.10
2018-05-29T04:30:15.146Z,39.83
2018-05-29T04:32:43.180Z,38.93
2018-05-29T04:35:11.125Z,38.53
2018-05-29T04:37:39.843Z,38.50
2018-05-29T04:40:07.799Z,38.40
2018-05-29T04:42:36.574Z,37.87
2018-05-29T04:45:05.296Z,37.57
2018-05-29T04:47:33.339Z,38.30
2018-05-29T04:50:01.367Z,39.50
2018-05-29T04:52:29.303Z,38.17
2018-05-29T04:54:58.129Z,37.07
2018-05-29T04:57:26.109Z,39.30
2018-05-29T04:59:54.088Z,41.03
2018-05-29T05:02:22.826Z,39.17
2018-05-29T05:04:50.756Z,38.93
2018-05-29T05:07:19.522Z,41.13
2018-05-29T05:09:47.490Z,38.37
2018-05-29T05:12:15.443Z,39.97
2018-05-29T05:14:43.357Z,38.23
2018-05-29T05:17:12.154Z,40.60
2018-05-29T05:19:40.105Z,36.57
2018-05-29T05:22:08.805Z,38.97
2018-05-29T05:24:36.789Z,37.67
2018-05-29T05:27:04.798Z,39.00
2018-05-29T05:29:32.787Z,37.07
2018-05-29T05:32:01.610Z,35.90
2018-05-29T05:34:29.569Z,36.50
2018-05-29T05:36:58.287Z,36.93
2018-05-29T05:39:26.288Z,39.27
2018-05-29T05:41:54.238Z,41.00
2018-05-29T05:44:22.184Z,40.10
2018-05-29T05:46:50.187Z,39.10
2018-05-29T05:49:18.148Z,41.30
2018-05-29T05:51:46.094Z,43.93
2018-05-29T05:54:14.062Z,41.80
2018-05-29T05:56:42.009Z,41.00
2018-05-29T05:59:10.706Z,40.88
2018-05-29T06:01:38.697Z,35.70
2018-05-29T06:04:06.635Z,35.80
2018-05-29T06:06:35.514Z,34.60
2018-05-29T06:09:05.328Z,32.33
2018-05-29T06:11:34.061Z,30.13
2018-05-29T06:14:02.321Z,30.53
2018-05-29T06:16:30.285Z,31.83
2018-05-29T06:18:58.217Z,29.97
2018-05-29T06:21:26.174Z,29.63
2018-05-29T06:23:54.100Z,30.60
2018-05-29T06:26:22.049Z,30.50
2018-05-29T06:28:50.783Z,35.90
2018-05-29T06:31:18.770Z,33.10
2018-05-29T06:33:46.744Z,34.07
2018-05-29T06:36:14.686Z,33.27
2018-05-29T06:38:42.694Z,31.97
2018-05-29T06:41:10.649Z,33.10
2018-05-29T06:43:38.584Z,31.23
2018-05-29T06:46:06.531Z,31.50
2018-05-29T06:48:34.483Z,28.23
2018-05-29T06:51:03.306Z,27.43
2018-05-29T06:53:31.295Z,27.87
2018-05-29T06:55:59.256Z,27.93
2018-05-29T06:58:27.164Z,26.67
2018-05-29T07:00:55.120Z,26.77
2018-05-29T07:03:23.033Z,23.27
2018-05-29T07:05:51.742Z,24.23
2018-05-29T07:08:19.731Z,22.83
2018-05-29T07:10:47.674Z,23.87
2018-05-29T07:13:15.617Z,22.57
2018-05-29T07:15:44.339Z,21.63
2018-05-29T07:18:12.264Z,22.33
2018-05-29T07:20:41.000Z,22.83
2018-05-29T07:23:08.976Z,23.23
2018-05-29T07:25:36.927Z,24.00
2018-05-29T07:28:04.894Z,22.53
2018-05-29T07:30:32.854Z,23.07
2018-05-29T07:33:01.552Z,21.27
2018-05-29T07:35:29.629Z,22.60
2018-05-29T07:37:57.578Z,22.80
2018-05-29T07:40:25.521Z,21.47
2018-05-29T07:42:53.484Z,20.67
2018-05-29T07:45:21.466Z,21.77
2018-05-29T07:47:50.214Z,22.50
2018-05-29T07:50:18.150Z,18.60
2018-05-29T07:52:46.077Z,20.07
2018-05-29T07:55:14.014Z,19.73
2018-05-29T07:57:42.004Z,20.17
2018-05-29T08:00:10.016Z,18.40
2018-05-29T08:02:38.720Z,19.07
2018-05-29T08:05:06.635Z,17.57
2018-05-29T08:07:34.587Z,17.90
2018-05-29T08:10:02.592Z,18.27
2018-05-29T08:12:30.574Z,19.35
2018-05-29T08:14:59.344Z,17.30
2018-05-29T08:17:27.579Z,17.63
2018-05-29T08:19:55.527Z,17.37
2018-05-29T08:22:23.493Z,16.53
2018-05-29T08:24:51.484Z,17.00
2018-05-29T08:27:19.435Z,16.47
2018-05-29T08:29:47.395Z,16.67
2018-05-29T08:32:15.388Z,16.33
2018-05-29T08:34:43.310Z,15.53
2018-05-29T08:37:11.264Z,14.77
2018-05-29T08:39:39.267Z,15.60
2018-05-29T08:42:07.980Z,15.80
2018-05-29T08:44:35.944Z,16.87
2018-05-29T08:47:03.986Z,17.20
2018-05-29T08:49:32.720Z,17.53
2018-05-29T08:52:00.659Z,21.17
2018-05-29T08:54:29.425Z,17.13
2018-05-29T08:56:58.180Z,18.23
2018-05-29T08:59:26.187Z,17.17
2018-05-29T09:01:54.934Z,18.07
2018-05-29T09:04:23.662Z,17.90
2018-05-29T09:06:52.400Z,18.13
2018-05-29T09:09:20.364Z,17.57
2018-05-29T09:11:48.380Z,18.37
2018-05-29T09:14:16.362Z,17.93
2018-05-29T09:16:45.089Z,18.90
2018-05-29T09:19:13.044Z,19.20
2018-05-29T09:21:41.022Z,19.73
2018-05-29T09:24:08.980Z,21.17
2018-05-29T09:26:36.949Z,20.40
2018-05-29T09:29:04.916Z,19.63
2018-05-29T09:31:32.894Z,19.77
2018-05-29T09:34:00.859Z,18.77
2018-05-29T09:36:30.251Z,18.00
2018-05-29T09:38:59.060Z,18.77
2018-05-29T09:41:27.061Z,20.87
2018-05-29T09:43:55.857Z,18.83
2018-05-29T09:46:25.018Z,18.70
2018-05-29T09:48:53.036Z,16.60
2018-05-29T09:51:21.185Z,17.07
2018-05-29T09:53:49.238Z,18.80
2018-05-29T09:56:17.305Z,20.37
2018-05-29T09:58:45.341Z,21.30
2018-05-29T10:01:14.178Z,22.70
2018-05-29T10:03:42.144Z,20.83
2018-05-29T10:06:10.130Z,22.27
2018-05-29T10:08:38.182Z,22.03
2018-05-29T10:11:06.138Z,22.03
2018-05-29T10:13:34.172Z,23.63
2018-05-29T10:16:02.213Z,25.27
2018-05-29T10:18:30.300Z,24.30
2018-05-29T10:20:58.421Z,23.87
2018-05-29T10:23:27.297Z,24.43
2018-05-29T10:25:56.269Z,23.77
2018-05-29T10:28:24.333Z,23.07
2018-05-29T10:30:52.407Z,23.57
2018-05-29T10:33:20.447Z,24.65
2018-05-29T10:35:48.456Z,24.17
2018-05-29T10:38:16.482Z,24.73
2018-05-29T10:40:44.461Z,22.70
2018-05-29T10:43:12.465Z,22.43
2018-05-29T10:45:40.516Z,21.00
2018-05-29T10:48:08.521Z,23.20
2018-05-29T10:50:37.299Z,21.95
2018-05-29T10:53:05.258Z,19.13
2018-05-29T10:55:33.203Z,17.10
2018-05-29T10:58:01.199Z,21.27
2018-05-29T11:00:29.179Z,18.70
2018-05-29T11:02:57.113Z,17.35
2018-05-29T11:05:25.109Z,17.12
2018-05-29T11:07:53.047Z,15.80
2018-05-29T11:10:21.017Z,18.00
2018-05-29T11:12:48.984Z,17.52
2018-05-29T11:15:16.957Z,17.02
2018-05-29T11:17:44.910Z,17.83
2018-05-29T11:20:12.908Z,16.80
2018-05-29T11:22:40.897Z,15.90
2018-05-29T11:25:08.829Z,17.07
2018-05-29T11:27:36.805Z,18.10
2018-05-29T11:30:04.885Z,20.13
2018-05-29T11:32:32.841Z,20.07
2018-05-29T11:35:00.819Z,19.00
2018-05-29T11:37:29.158Z,19.17
2018-05-29T11:39:57.905Z,18.67
2018-05-29T11:42:25.988Z,21.63
2018-05-29T11:44:54.763Z,18.10
2018-05-29T11:47:22.738Z,18.00
2018-05-29T11:49:51.606Z,18.50
2018-05-29T11:52:19.829Z,18.83
2018-05-29T11:54:48.620Z,19.47
2018-05-29T11:57:16.556Z,18.53
2018-05-29T11:59:44.554Z,18.50
2018-05-29T12:02:12.494Z,23.40
2018-05-29T12:04:40.435Z,26.57
2018-05-29T12:07:08.388Z,22.77
2018-05-29T12:09:36.342Z,26.67
2018-05-29T12:12:26.740Z,23.97
2018-05-29T12:14:55.455Z,29.23
2018-05-29T12:17:26.399Z,25.87
2018-05-29T12:19:54.402Z,26.93
2018-05-29T12:22:22.357Z,41.77
2018-05-29T12:24:50.359Z,29.93
2018-05-29T12:27:19.078Z,32.90
2018-05-29T12:29:47.035Z,33.73
2018-05-29T12:32:16.416Z,33.13
2018-05-29T12:34:44.371Z,31.67
2018-05-29T12:37:12.338Z,24.47
2018-05-29T12:39:40.325Z,23.30
2018-05-29T12:42:08.289Z,21.93
2018-05-29T12:44:36.282Z,15.03
2018-05-29T12:47:05.039Z,15.33
2018-05-29T12:49:32.977Z,12.97
2018-05-29T12:52:00.912Z,27.00
2018-05-29T12:54:29.628Z,11.20
2018-05-29T12:56:57.569Z,12.37
2018-05-29T12:59:26.312Z,15.63
2018-05-29T13:01:54.310Z,17.47
2018-05-29T13:04:22.306Z,22.93
2018-05-29T13:06:50.431Z,23.50
2018-05-29T13:09:19.212Z,24.13
2018-05-29T13:11:47.173Z,21.20
2018-05-29T13:14:15.168Z,25.00
2018-05-29T13:16:43.180Z,24.93
2018-05-29T13:19:11.136Z,13.43
2018-05-29T13:21:39.877Z,9.63
2018-05-29T13:24:07.858Z,9.63
2018-05-29T13:26:35.816Z,10.40
2018-05-29T13:29:04.032Z,6.53
2018-05-29T13:31:32.819Z,11.03
2018-05-29T13:34:01.860Z,7.87
2018-05-29T13:36:29.866Z,10.17
2018-05-29T13:38:57.838Z,9.90
2018-05-29T13:41:25.823Z,8.83
2018-05-29T13:43:54.538Z,9.57
2018-05-29T13:46:22.532Z,10.80
2018-05-29T13:48:50.493Z,11.03
2018-05-29T13:51:18.418Z,9.87
2018-05-29T13:53:47.197Z,10.63
2018-05-29T13:56:15.154Z,10.40
2018-05-29T13:58:43.122Z,19.20
2018-05-29T14:01:11.103Z,12.93
2018-05-29T14:03:39.116Z,13.97
2018-05-29T14:06:07.134Z,16.97
2018-05-29T14:08:35.106Z,13.30
2018-05-29T14:11:04.109Z,13.60
2018-05-29T14:13:32.088Z,15.37
2018-05-29T14:16:00.893Z,11.13
2018-05-29T14:18:29.635Z,10.77
2018-05-29T14:20:57.632Z,48.67
2018-05-29T14:23:25.704Z,14.00
2018-05-29T14:25:53.667Z,13.60
2018-05-29T14:28:21.628Z,9.67
2018-05-29T14:30:49.606Z,26.10
2018-05-29T14:33:17.559Z,12.90
2018-05-29T14:35:45.485Z,8.00
2018-05-29T14:38:13.445Z,7.93
2018-05-29T14:40:42.142Z,9.20
2018-05-29T14:43:10.093Z,6.50
2018-05-29T14:45:38.832Z,6.80
2018-05-29T14:48:07.081Z,8.07
2018-05-29T14:50:35.060Z,10.63
2018-05-29T14:53:03.013Z,7.75
2018-05-29T14:55:31.014Z,7.93
2018-05-29T14:57:58.967Z,8.80
2018-05-29T15:00:26.938Z,8.17
2018-05-29T15:02:54.858Z,9.98
2018-05-29T15:05:22.831Z,12.90
2018-05-29T15:07:51.572Z,10.93
2018-05-29T15:10:19.520Z,8.67
2018-05-29T15:12:47.517Z,15.53
2018-05-29T15:15:15.456Z,13.37
2018-05-29T15:17:43.371Z,9.90
2018-05-29T15:20:11.302Z,9.50
2018-05-29T15:22:39.372Z,8.07
2018-05-29T15:25:07.311Z,6.37
2018-05-29T15:27:36.042Z,9.70
2018-05-29T15:30:04.102Z,10.80
2018-05-29T15:32:32.058Z,10.30
2018-05-29T15:34:59.999Z,11.90
2018-05-29T15:37:27.968Z,13.17
2018-05-29T15:39:55.932Z,10.77
2018-05-29T15:42:23.893Z,11.47
2018-05-29T15:44:51.836Z,13.93
2018-05-29T15:47:19.796Z,11.23
2018-05-29T15:49:47.759Z,13.20
2018-05-29T15:52:15.801Z,12.73
2018-05-29T15:54:44.524Z,12.03
2018-05-29T15:57:12.517Z,13.53
2018-05-29T15:59:40.459Z,13.93
2018-05-29T16:02:08.401Z,10.63
2018-05-29T16:04:37.137Z,13.90
2018-05-29T16:07:05.135Z,14.37
2018-05-29T16:09:33.221Z,12.13
2018-05-29T16:12:02.076Z,12.00
2018-05-29T16:14:30.179Z,12.43
2018-05-29T16:16:58.925Z,11.30
2018-05-29T16:19:26.906Z,12.63
2018-05-29T16:21:54.987Z,14.43
2018-05-29T16:24:23.057Z,13.43
2018-05-29T16:26:51.027Z,14.80
2018-05-29T16:29:18.986Z,11.60
2018-05-29T16:31:46.978Z,12.37
2018-05-29T16:34:15.017Z,11.60
2018-05-29T16:36:42.964Z,14.33
2018-05-29T16:39:12.475Z,13.33
2018-05-29T16:41:40.395Z,12.67
2018-05-29T16:44:08.379Z,13.37
2018-05-29T16:46:37.091Z,14.20
2018-05-29T16:49:05.090Z,13.63
2018-05-29T16:51:33.182Z,14.43
2018-05-29T16:54:01.126Z,13.40
2018-05-29T16:56:29.125Z,11.80
2018-05-29T16:58:57.103Z,10.85
2018-05-29T17:01:25.039Z,13.07
2018-05-29T17:03:52.999Z,13.07
2018-05-29T17:06:20.931Z,12.63
2018-05-29T17:08:49.659Z,10.32
2018-05-29T17:11:17.608Z,10.75
2018-05-29T17:13:45.545Z,12.15
2018-05-29T17:16:14.276Z,10.82
2018-05-29T17:18:42.246Z,11.73
2018-05-29T17:21:10.188Z,11.27
2018-05-29T17:23:38.921Z,12.02
2018-05-29T17:26:06.887Z,11.77
2018-05-29T17:28:34.853Z,12.50
2018-05-29T17:31:02.786Z,11.90
2018-05-29T17:33:32.355Z,10.33
2018-05-29T17:36:01.105Z,10.55
2018-05-29T17:38:29.105Z,12.33
2018-05-29T17:40:57.102Z,11.10
2018-05-29T17:43:25.865Z,10.67
2018-05-29T17:45:53.821Z,11.50
2018-05-29T17:48:22.558Z,8.97
2018-05-29T17:50:51.337Z,10.27
2018-05-29T17:53:19.304Z,11.90
2018-05-29T17:55:47.259Z,11.70
2018-05-29T17:58:15.220Z,11.57
2018-05-29T18:00:43.261Z,12.93
2018-05-29T18:03:11.179Z,11.17
2018-05-29T18:05:39.134Z,16.03
2018-05-29T18:08:07.096Z,11.63
2018-05-29T18:10:35.054Z,12.27
2018-05-29T18:13:03.043Z,13.53
2018-05-29T18:15:30.972Z,13.77
2018-05-29T18:17:58.884Z,13.33
2018-05-29T18:20:27.013Z,13.73
2018-05-29T18:22:54.992Z,12.67
2018-05-29T18:25:22.979Z,12.70
2018-05-29T18:27:50.960Z,13.67
2018-05-29T18:30:18.913Z,12.93
2018-05-29T18:32:46.978Z,11.67
2018-05-29T18:35:15.439Z,14.20
2018-05-29T18:37:45.728Z,13.93
2018-05-29T18:40:15.538Z,14.10
2018-05-29T18:42:43.933Z,14.10
2018-05-29T18:45:18.730Z,14.70
2018-05-29T18:47:47.616Z,13.90
2018-05-29T18:50:17.722Z,14.70
2018-05-29T18:52:46.449Z,13.70
2018-05-29T18:55:15.939Z,13.23
2018-05-29T18:57:44.220Z,13.03
2018-05-29T19:00:12.185Z,13.33
2018-05-29T19:02:40.166Z,13.77
2018-05-29T19:05:08.112Z,13.37
2018-05-29T19:07:36.125Z,15.30
2018-05-29T19:10:04.860Z,14.33
2018-05-29T19:12:32.806Z,18.90
2018-05-29T19:15:00.799Z,13.57
2018-05-29T19:17:28.772Z,13.70
2018-05-29T19:19:56.793Z,15.10
2018-05-29T19:22:25.532Z,16.53
2018-05-29T19:24:54.340Z,17.10
2018-05-29T19:27:22.265Z,14.70
2018-05-29T19:29:50.215Z,15.90
2018-05-29T19:32:18.942Z,18.00
2018-05-29T19:34:46.856Z,15.17
2018-05-29T19:37:15.645Z,15.57
2018-05-29T19:39:44.379Z,14.20
2018-05-29T19:42:12.317Z,14.57
2018-05-29T19:44:40.329Z,15.80
2018-05-29T19:47:08.333Z,14.40
2018-05-29T19:49:37.051Z,16.97
2018-05-29T19:52:05.103Z,15.67
2018-05-29T19:54:33.788Z,13.80
2018-05-29T19:57:02.531Z,14.40
2018-05-29T19:59:30.595Z,13.70
2018-05-29T20:01:58.522Z,15.63
2018-05-29T20:04:27.299Z,17.10
2018-05-29T20:06:56.097Z,13.60
2018-05-29T20:09:24.040Z,14.00
2018-05-29T20:11:52.037Z,14.90
2018-05-29T20:14:20.753Z,16.33
2018-05-29T20:16:48.746Z,16.10
2018-05-29T20:19:16.703Z,17.23
2018-05-29T20:21:44.652Z,15.80
2018-05-29T20:24:12.722Z,16.37
2018-05-29T20:26:40.670Z,17.90
2018-05-29T20:29:09.417Z,16.77
2018-05-29T20:31:37.355Z,20.23
2018-05-29T20:34:05.316Z,19.93
2018-05-29T20:36:33.292Z,23.40
2018-05-29T20:39:01.260Z,21.40
2018-05-29T20:41:29.200Z,23.53
2018-05-29T20:43:57.983Z,18.57
2018-05-29T20:46:25.928Z,18.70
2018-05-29T20:48:53.888Z,16.83
2018-05-29T20:51:21.894Z,19.13
2018-05-29T20:53:49.885Z,17.87
2018-05-29T20:56:18.573Z,17.07
2018-05-29T20:58:47.320Z,21.53
2018-05-29T21:01:15.330Z,22.33
2018-05-29T21:03:44.050Z,16.50
2018-05-29T21:06:12.023Z,17.90
2018-05-29T21:08:40.003Z,17.37
2018-05-29T21:11:07.946Z,18.47
2018-05-29T21:13:35.906Z,19.50
2018-05-29T21:16:03.880Z,17.70
2018-05-29T21:18:31.897Z,17.77
2018-05-29T21:20:59.873Z,20.60
2018-05-29T21:23:27.846Z,16.97
2018-05-29T21:25:55.779Z,16.90
2018-05-29T21:28:23.835Z,18.77
2018-05-29T21:30:51.818Z,21.30
2018-05-29T21:33:19.799Z,19.10
2018-05-29T21:35:47.727Z,15.63
2018-05-29T21:38:16.434Z,21.90
2018-05-29T21:40:44.351Z,19.33
2018-05-29T21:43:12.330Z,16.37
2018-05-29T21:45:41.065Z,16.00
2018-05-29T21:48:09.090Z,15.67
2018-05-29T21:50:37.821Z,15.63
2018-05-29T21:53:05.754Z,14.87
2018-05-29T21:55:34.493Z,17.43
2018-05-29T21:58:02.532Z,14.80
2018-05-29T22:00:30.500Z,15.40
2018-05-29T22:02:58.448Z,17.70
2018-05-29T22:05:27.242Z,15.30
2018-05-29T22:07:55.949Z,15.00
2018-05-29T22:10:23.874Z,14.97
2018-05-29T22:12:51.884Z,16.40
2018-05-29T22:15:19.858Z,16.67
2018-05-29T22:17:47.814Z,17.37
2018-05-29T22:20:16.515Z,15.90
2018-05-29T22:22:44.482Z,15.40
2018-05-29T22:25:12.560Z,16.00
2018-05-29T22:27:40.482Z,16.90
2018-05-29T22:30:08.428Z,15.43
2018-05-29T22:32:36.372Z,15.23
2018-05-29T22:35:04.410Z,14.90
2018-05-29T22:37:33.143Z,15.83
2018-05-29T22:40:01.131Z,14.87
2018-05-29T22:42:29.106Z,14.77
2018-05-29T22:44:57.089Z,15.03
2018-05-29T22:47:25.004Z,15.20
2018-05-29T22:49:52.966Z,15.53
2018-05-29T22:52:20.938Z,17.00
2018-05-29T22:54:48.900Z,15.90
2018-05-29T22:57:17.628Z,15.93
2018-05-29T22:59:45.625Z,17.23
2018-05-29T23:02:13.587Z,14.60
2018-05-29T23:04:41.607Z,15.27
2018-05-29T23:07:09.563Z,15.23
2018-05-29T23:09:38.299Z,17.10
2018-05-29T23:12:06.304Z,16.80
2018-05-29T23:14:35.050Z,15.90
2018-05-29T23:17:03.015Z,16.43
2018-05-29T23:19:31.794Z,15.70
2018-05-29T23:21:59.752Z,17.17
2018-05-29T23:24:27.706Z,17.20
2018-05-29T23:26:56.486Z,16.47
2018-05-29T23:29:25.207Z,16.13
2018-05-29T23:31:53.165Z,16.23
2018-05-29T23:34:21.110Z,16.67
2018-05-29T23:36:49.844Z,16.43
2018-05-29T23:39:17.809Z,16.63
2018-05-29T23:41:45.783Z,16.87
2018-05-29T23:44:13.734Z,17.47
2018-05-29T23:46:41.660Z,15.87
2018-05-29T23:49:09.676Z,17.00
2018-05-29T23:51:37.626Z,17.07
2018-05-29T23:54:06.327Z,18.07
2018-05-29T23:56:34.327Z,16.53
2018-05-29T23:59:03.143Z,18.67
